createdAt,value
2018-09-17T00:00:34.175Z,24.00
2018-09-17T00:03:03.645Z,24.33
2018-09-17T00:05:34.643Z,26.67
2018-09-17T00:08:04.016Z,28.47
2018-09-17T00:10:33.536Z,29.83
2018-09-17T00:13:04.142Z,26.73
2018-09-17T00:15:34.184Z,30.43
2018-09-17T00:18:05.402Z,31.17
2018-09-17T00:20:35.066Z,29.47
2018-09-17T00:23:04.584Z,28.73
2018-09-17T00:25:34.767Z,28.67
2018-09-17T00:28:04.504Z,27.67
2018-09-17T00:30:34.087Z,23.40
2018-09-17T00:33:03.784Z,25.00
2018-09-17T00:35:33.608Z,23.07
2018-09-17T00:38:04.110Z,22.20
2018-09-17T00:40:39.972Z,23.50
2018-09-17T00:43:14.332Z,22.70
2018-09-17T00:45:43.904Z,24.30
2018-09-17T00:48:13.612Z,21.90
2018-09-17T00:50:47.500Z,23.63
2018-09-17T00:53:23.942Z,23.87
2018-09-17T00:55:53.368Z,25.87
2018-09-17T00:58:23.031Z,27.83
2018-09-17T01:00:52.700Z,27.33
2018-09-17T01:03:23.084Z,25.60
2018-09-17T01:05:53.241Z,25.57
2018-09-17T01:08:23.395Z,21.57
2018-09-17T01:10:52.907Z,22.47
2018-09-17T01:13:23.151Z,17.40
2018-09-17T01:15:52.734Z,19.03
2018-09-17T01:18:22.281Z,18.73
2018-09-17T01:20:54.463Z,19.10
2018-09-17T01:23:25.543Z,20.60
2018-09-17T01:25:55.145Z,22.33
2018-09-17T01:28:24.621Z,24.23
2018-09-17T01:30:54.301Z,21.07
2018-09-17T01:33:24.987Z,22.50
2018-09-17T01:35:54.538Z,23.97
2018-09-17T01:38:26.005Z,24.07
2018-09-17T01:40:55.569Z,22.13
2018-09-17T01:43:30.073Z,21.40
2018-09-17T01:45:59.957Z,20.43
2018-09-17T01:48:29.576Z,22.10
2018-09-17T01:50:59.285Z,19.53
2018-09-17T01:53:28.956Z,19.13
2018-09-17T01:55:58.720Z,18.93
2018-09-17T01:58:28.353Z,22.70
2018-09-17T02:00:58.096Z,20.57
2018-09-17T02:03:27.705Z,19.60
2018-09-17T02:05:57.281Z,21.77
2018-09-17T02:08:27.807Z,24.60
2018-09-17T02:11:02.675Z,23.97
2018-09-17T02:13:39.104Z,25.47
2018-09-17T02:16:08.776Z,26.33
2018-09-17T02:18:39.489Z,25.47
2018-09-17T02:21:11.777Z,24.97
2018-09-17T02:23:41.779Z,25.50
2018-09-17T02:26:14.837Z,24.63
2018-09-17T02:28:49.900Z,24.93
2018-09-17T02:31:19.730Z,19.43
2018-09-17T02:33:49.513Z,19.50
2018-09-17T02:36:19.178Z,17.00
2018-09-17T02:38:49.405Z,15.47
2018-09-17T02:41:19.581Z,14.97
2018-09-17T02:43:49.388Z,15.00
2018-09-17T02:46:19.231Z,16.43
2018-09-17T02:48:49.055Z,15.00
2018-09-17T02:51:27.324Z,13.80
2018-09-17T02:53:57.153Z,14.93
2018-09-17T02:56:27.862Z,12.60
2018-09-17T02:58:57.643Z,10.73
2018-09-17T03:01:33.043Z,11.53
2018-09-17T03:04:02.653Z,13.43
2018-09-17T03:06:32.343Z,16.63
2018-09-17T03:09:01.900Z,19.23
2018-09-17T03:11:31.481Z,20.67
2018-09-17T03:14:01.756Z,21.57
2018-09-17T03:16:31.512Z,23.47
2018-09-17T03:19:01.084Z,23.90
2018-09-17T03:21:30.800Z,25.03
2018-09-17T03:24:00.381Z,20.07
2018-09-17T03:26:30.370Z,19.93
2018-09-17T03:29:01.994Z,16.43
2018-09-17T03:31:31.735Z,14.13
2018-09-17T03:34:01.473Z,13.40
2018-09-17T03:36:31.361Z,13.40
2018-09-17T03:39:01.165Z,13.50
2018-09-17T03:41:30.624Z,15.03
2018-09-17T03:44:00.585Z,15.50
2018-09-17T03:46:30.906Z,16.07
2018-09-17T03:49:00.672Z,17.70
2018-09-17T03:51:30.342Z,18.73
2018-09-17T03:54:00.235Z,19.67
2018-09-17T03:56:36.781Z,19.00
2018-09-17T03:59:06.474Z,18.97
2018-09-17T04:01:36.190Z,19.60
2018-09-17T04:04:05.666Z,20.23
2018-09-17T04:06:35.311Z,22.77
2018-09-17T04:09:07.483Z,20.87
2018-09-17T04:11:37.870Z,18.67
2018-09-17T04:14:08.979Z,19.17
2018-09-17T04:16:39.179Z,18.80
2018-09-17T04:19:11.395Z,15.07
2018-09-17T04:21:41.269Z,13.80
2018-09-17T04:24:12.326Z,12.53
2018-09-17T04:26:41.879Z,13.40
2018-09-17T04:29:11.624Z,13.23
2018-09-17T04:31:41.392Z,13.07
2018-09-17T04:34:14.036Z,12.13
2018-09-17T04:36:43.645Z,12.40
2018-09-17T04:39:14.948Z,12.73
2018-09-17T04:41:45.282Z,13.50
2018-09-17T04:44:15.583Z,13.83
2018-09-17T04:46:50.004Z,15.80
2018-09-17T04:49:20.346Z,13.90
2018-09-17T04:51:50.553Z,15.00
2018-09-17T04:54:22.267Z,15.17
2018-09-17T04:56:52.078Z,15.03
2018-09-17T04:59:21.876Z,13.27
2018-09-17T05:01:51.610Z,14.87
2018-09-17T05:04:21.247Z,15.83
2018-09-17T05:06:51.060Z,15.27
2018-09-17T05:09:22.697Z,13.47
2018-09-17T05:11:52.672Z,15.60
2018-09-17T05:14:22.339Z,14.07
2018-09-17T05:16:51.840Z,15.07
2018-09-17T05:19:21.590Z,15.77
2018-09-17T05:21:52.225Z,17.80
2018-09-17T05:24:22.197Z,19.03
2018-09-17T05:26:51.800Z,26.20
2018-09-17T05:29:21.518Z,39.67
2018-09-17T05:31:51.325Z,44.43
2018-09-17T05:34:21.483Z,41.60
2018-09-17T05:36:51.516Z,36.77
2018-09-17T05:39:21.077Z,32.80
2018-09-17T05:41:50.651Z,40.90
2018-09-17T05:44:22.186Z,34.10
2018-09-17T05:46:51.792Z,30.17
2018-09-17T05:49:21.482Z,24.73
2018-09-17T05:51:51.202Z,29.77
2018-09-17T05:54:21.559Z,23.80
2018-09-17T05:56:52.184Z,26.90
2018-09-17T05:59:22.378Z,27.17
2018-09-17T06:01:52.773Z,36.20
2018-09-17T06:04:22.666Z,37.80
2018-09-17T06:06:53.356Z,44.87
2018-09-17T06:09:23.807Z,46.63
2018-09-17T06:11:53.447Z,49.63
2018-09-17T06:14:23.387Z,49.03
2018-09-17T06:16:53.698Z,50.53
2018-09-17T06:19:23.580Z,48.20
2018-09-17T06:21:53.293Z,49.43
2018-09-17T06:24:24.854Z,46.93
2018-09-17T06:26:54.403Z,47.23
2018-09-17T06:29:24.132Z,44.83
2018-09-17T06:31:54.708Z,44.87
2018-09-17T06:34:24.557Z,43.20
2018-09-17T06:39:24.592Z,41.03
2018-09-17T06:41:54.937Z,41.07
2018-09-17T06:44:24.667Z,39.70
2018-09-17T06:46:59.057Z,38.90
2018-09-17T06:49:28.679Z,40.83
2018-09-17T06:51:59.095Z,38.87
2018-09-17T06:54:29.345Z,38.50
2018-09-17T06:56:58.956Z,38.63
2018-09-17T06:59:29.803Z,38.97
2018-09-17T07:02:00.748Z,37.50
2018-09-17T07:04:30.439Z,38.40
2018-09-17T07:07:01.403Z,39.13
2018-09-17T07:09:35.543Z,37.20
2018-09-17T07:12:05.328Z,35.87
2018-09-17T07:14:35.238Z,39.27
2018-09-17T07:17:05.068Z,37.37
2018-09-17T07:19:34.786Z,38.23
2018-09-17T07:22:04.378Z,37.43
2018-09-17T07:24:34.590Z,38.60
2018-09-17T07:27:04.801Z,37.03
2018-09-17T07:29:35.485Z,36.50
2018-09-17T07:32:04.972Z,36.10
2018-09-17T07:34:34.980Z,32.67
2018-09-17T07:37:04.694Z,30.10
2018-09-17T07:39:34.255Z,29.27
2018-09-17T07:42:04.289Z,26.07
2018-09-17T07:44:33.892Z,24.77
2018-09-17T07:47:04.103Z,22.60
2018-09-17T07:49:33.615Z,24.20
2018-09-17T07:52:03.167Z,24.03
2018-09-17T07:54:32.799Z,20.10
2018-09-17T07:57:02.342Z,19.00
2018-09-17T07:59:33.549Z,18.43
2018-09-17T08:02:03.033Z,16.20
2018-09-17T08:04:32.668Z,15.10
2018-09-17T08:07:02.255Z,14.70
2018-09-17T08:09:32.219Z,13.70
2018-09-17T08:12:01.767Z,13.00
2018-09-17T08:14:31.397Z,11.50
2018-09-17T08:17:01.597Z,11.87
2018-09-17T08:19:32.238Z,11.43
2018-09-17T08:22:01.912Z,11.10
2018-09-17T08:24:31.778Z,11.40
2018-09-17T08:27:01.393Z,10.50
2018-09-17T08:29:31.098Z,11.60
2018-09-17T08:32:01.664Z,11.00
2018-09-17T08:34:31.129Z,11.07
2018-09-17T08:37:01.728Z,10.30
2018-09-17T08:39:31.168Z,10.10
2018-09-17T08:42:01.468Z,9.50
2018-09-17T08:44:31.247Z,9.93
2018-09-17T08:47:01.640Z,9.63
2018-09-17T08:49:31.557Z,9.37
2018-09-17T08:52:01.072Z,8.57
2018-09-17T08:54:30.932Z,8.30
2018-09-17T08:57:00.508Z,8.60
2018-09-17T08:59:35.805Z,8.03
2018-09-17T09:02:10.592Z,8.00
2018-09-17T09:04:50.736Z,7.50
2018-09-17T09:07:26.060Z,7.50
2018-09-17T09:10:01.378Z,8.07
2018-09-17T09:12:36.564Z,7.50
2018-09-17T09:15:11.399Z,7.40
2018-09-17T09:17:41.262Z,6.97
2018-09-17T09:20:11.091Z,7.20
2018-09-17T09:22:40.555Z,6.80
2018-09-17T09:25:10.247Z,7.27
2018-09-17T09:27:40.697Z,6.03
2018-09-17T09:30:11.027Z,6.63
2018-09-17T09:32:40.796Z,6.70
2018-09-17T09:35:10.991Z,6.60
2018-09-17T09:37:41.441Z,6.53
2018-09-17T09:40:11.090Z,6.53
2018-09-17T09:42:40.934Z,6.03
2018-09-17T09:45:10.793Z,6.70
2018-09-17T09:47:40.968Z,6.20
2018-09-17T09:50:14.448Z,5.83
2018-09-17T09:52:51.080Z,5.93
2018-09-17T09:55:20.883Z,5.27
2018-09-17T09:57:50.631Z,5.03
2018-09-17T10:00:25.485Z,4.73
2018-09-17T10:03:05.917Z,4.97
2018-09-17T10:05:36.067Z,5.20
2018-09-17T10:08:05.823Z,5.20
2018-09-17T10:10:40.490Z,5.30
2018-09-17T10:13:15.125Z,4.70
2018-09-17T10:15:50.844Z,4.30
2018-09-17T10:18:25.970Z,4.37
2018-09-17T10:20:56.161Z,4.20
2018-09-17T10:23:25.714Z,5.00
2018-09-17T10:25:55.612Z,4.57
2018-09-17T10:28:25.389Z,4.00
2018-09-17T10:30:55.052Z,3.70
2018-09-17T10:33:25.592Z,4.10
2018-09-17T10:35:55.678Z,3.97
2018-09-17T10:38:26.202Z,3.53
2018-09-17T10:40:56.816Z,3.63
2018-09-17T10:43:26.547Z,3.87
2018-09-17T10:45:56.622Z,3.30
2018-09-17T10:48:26.689Z,3.80
2018-09-17T10:50:57.073Z,4.00
2018-09-17T10:53:26.650Z,3.50
2018-09-17T10:55:56.805Z,2.90
2018-09-17T10:58:26.959Z,3.40
2018-09-17T11:00:56.463Z,3.30
2018-09-17T11:03:26.168Z,3.80
2018-09-17T11:05:55.634Z,3.30
2018-09-17T11:08:25.635Z,3.30
2018-09-17T11:10:56.009Z,3.53
2018-09-17T11:13:26.085Z,3.43
2018-09-17T11:15:56.459Z,2.93
2018-09-17T11:18:25.928Z,3.63
2018-09-17T11:20:55.692Z,3.40
2018-09-17T11:23:29.104Z,3.43
2018-09-17T11:26:02.998Z,3.33
2018-09-17T11:28:32.455Z,3.30
2018-09-17T11:31:02.141Z,3.47
2018-09-17T11:33:32.596Z,3.70
2018-09-17T11:36:02.035Z,3.43
2018-09-17T11:38:32.798Z,3.90
2018-09-17T11:41:02.270Z,3.60
2018-09-17T11:43:31.744Z,3.53
2018-09-17T11:46:01.438Z,3.70
2018-09-17T11:48:30.968Z,3.90
2018-09-17T11:51:00.904Z,3.57
2018-09-17T11:53:31.468Z,3.20
2018-09-17T11:56:01.371Z,3.33
2018-09-17T11:58:30.922Z,3.57
2018-09-17T12:01:05.692Z,3.67
2018-09-17T12:03:40.893Z,4.10
2018-09-17T12:06:11.051Z,3.80
2018-09-17T12:08:40.857Z,4.10
2018-09-17T12:11:11.149Z,3.80
2018-09-17T12:13:41.295Z,4.00
2018-09-17T12:16:11.691Z,4.07
2018-09-17T12:18:41.879Z,3.83
2018-09-17T12:21:11.525Z,3.87
2018-09-17T12:23:41.320Z,3.60
2018-09-17T12:26:10.830Z,4.10
2018-09-17T12:28:40.977Z,4.07
2018-09-17T12:31:11.870Z,4.30
2018-09-17T12:33:42.362Z,3.93
2018-09-17T12:36:12.118Z,3.87
2018-09-17T12:38:41.605Z,4.10
2018-09-17T12:41:12.094Z,3.67
2018-09-17T12:43:42.006Z,4.00
2018-09-17T12:46:14.819Z,4.30
2018-09-17T12:48:44.597Z,3.70
2018-09-17T12:51:14.200Z,3.73
2018-09-17T12:53:43.740Z,4.00
2018-09-17T12:56:13.976Z,4.10
2018-09-17T12:58:43.527Z,3.90
2018-09-17T13:01:13.717Z,4.27
2018-09-17T13:03:43.885Z,3.87
2018-09-17T13:06:13.684Z,3.97
2018-09-17T13:08:43.806Z,4.07
2018-09-17T13:11:14.135Z,3.80
2018-09-17T13:13:44.465Z,4.20
2018-09-17T13:16:14.021Z,4.00
2018-09-17T13:18:43.731Z,4.10
2018-09-17T13:21:14.139Z,4.33
2018-09-17T13:23:44.836Z,4.10
2018-09-17T13:26:14.507Z,4.10
2018-09-17T13:28:44.330Z,4.23
2018-09-17T13:31:13.961Z,4.30
2018-09-17T13:33:44.559Z,3.87
2018-09-17T13:36:15.723Z,4.13
2018-09-17T13:38:46.303Z,3.63
2018-09-17T13:41:17.407Z,4.17
2018-09-17T13:43:47.304Z,4.40
2018-09-17T13:46:16.886Z,4.07
2018-09-17T13:48:47.568Z,4.07
2018-09-17T13:51:18.632Z,4.07
2018-09-17T13:53:48.603Z,4.00
2018-09-17T13:56:18.217Z,4.97
2018-09-17T13:58:47.884Z,4.27
2018-09-17T14:01:17.565Z,4.00
2018-09-17T14:03:47.354Z,3.60
2018-09-17T14:06:16.902Z,4.10
2018-09-17T14:08:46.674Z,4.20
2018-09-17T14:11:16.190Z,4.20
2018-09-17T14:13:46.019Z,4.30
2018-09-17T14:16:19.778Z,4.17
2018-09-17T14:18:50.228Z,4.17
2018-09-17T14:21:20.447Z,4.03
2018-09-17T14:23:55.598Z,4.27
2018-09-17T14:26:26.796Z,4.50
2018-09-17T14:28:57.627Z,3.83
2018-09-17T14:31:33.350Z,4.20
2018-09-17T14:34:02.855Z,4.37
2018-09-17T14:36:32.548Z,4.17
2018-09-17T14:39:02.044Z,4.17
2018-09-17T14:41:32.266Z,4.03
2018-09-17T14:44:01.991Z,4.27
2018-09-17T14:46:33.247Z,4.00
2018-09-17T14:49:03.371Z,4.03
2018-09-17T14:51:33.440Z,4.17
2018-09-17T14:54:03.208Z,3.80
2018-09-17T14:56:34.932Z,3.67
2018-09-17T14:59:05.273Z,3.70
2018-09-17T15:01:35.048Z,4.13
2018-09-17T15:04:04.759Z,4.20
2018-09-17T15:06:34.489Z,3.80
2018-09-17T15:09:05.060Z,3.97
2018-09-17T15:11:35.612Z,4.43
2018-09-17T15:14:06.643Z,3.57
2018-09-17T15:16:37.740Z,3.93
2018-09-17T15:19:08.094Z,3.70
2018-09-17T15:21:41.221Z,3.87
2018-09-17T15:24:12.016Z,3.80
2018-09-17T15:26:42.906Z,3.70
2018-09-17T15:29:12.649Z,3.73
2018-09-17T15:31:42.993Z,4.43
2018-09-17T15:34:12.788Z,4.10
2018-09-17T15:36:43.336Z,3.97
2018-09-17T15:39:14.216Z,3.90
2018-09-17T15:41:44.424Z,3.80
2018-09-17T15:44:15.056Z,3.63
2018-09-17T15:46:44.891Z,3.70
2018-09-17T15:49:14.539Z,4.50
2018-09-17T15:51:44.093Z,3.70
2018-09-17T15:54:14.457Z,3.80
2018-09-17T15:56:43.963Z,4.50
2018-09-17T15:59:13.592Z,4.60
2018-09-17T16:01:43.909Z,3.87
2018-09-17T16:04:14.338Z,3.70
2018-09-17T16:06:44.805Z,3.40
2018-09-17T16:09:14.393Z,3.80
2018-09-17T16:11:44.947Z,4.37
2018-09-17T16:14:15.337Z,3.73
2018-09-17T16:16:44.852Z,3.77
2018-09-17T16:19:15.683Z,3.70
2018-09-17T16:21:49.591Z,4.13
2018-09-17T16:24:19.826Z,4.97
2018-09-17T16:26:49.479Z,4.50
2018-09-17T16:29:19.169Z,4.47
2018-09-17T16:31:50.588Z,3.97
2018-09-17T16:34:20.932Z,4.30
2018-09-17T16:36:55.600Z,5.60
2018-09-17T16:39:26.445Z,5.20
2018-09-17T16:41:56.090Z,7.27
2018-09-17T16:44:26.485Z,5.00
2018-09-17T16:46:56.380Z,5.27
2018-09-17T16:49:26.736Z,4.67
2018-09-17T16:51:58.913Z,4.30
2018-09-17T16:54:28.691Z,4.37
2018-09-17T16:56:58.527Z,4.33
2018-09-17T16:59:29.173Z,4.10
2018-09-17T17:01:59.748Z,4.47
2018-09-17T17:04:29.551Z,4.00
2018-09-17T17:06:59.485Z,4.00
2018-09-17T17:09:29.174Z,3.90
2018-09-17T17:12:00.039Z,4.30
2018-09-17T17:14:30.703Z,3.97
2018-09-17T17:17:00.345Z,4.40
2018-09-17T17:19:30.759Z,4.53
2018-09-17T17:22:00.256Z,4.73
2018-09-17T17:24:30.474Z,5.13
2018-09-17T17:27:00.297Z,4.20
2018-09-17T17:29:30.036Z,4.37
2018-09-17T17:31:59.704Z,4.80
2018-09-17T17:34:29.382Z,4.60
2018-09-17T17:37:07.782Z,4.70
2018-09-17T17:39:38.484Z,4.30
2018-09-17T17:42:08.192Z,4.53
2018-09-17T17:44:38.518Z,4.57
2018-09-17T17:47:08.910Z,5.20
2018-09-17T17:49:38.628Z,4.70
2018-09-17T17:52:08.261Z,4.20
2018-09-17T17:54:39.481Z,4.70
2018-09-17T17:57:09.059Z,4.60
2018-09-17T17:59:38.804Z,4.50
2018-09-17T18:02:09.340Z,4.97
2018-09-17T18:05:00.979Z,4.40
2018-09-17T18:07:32.901Z,4.80
2018-09-17T18:10:12.452Z,6.00
2018-09-17T18:12:51.437Z,5.77
2018-09-17T18:15:21.318Z,4.83
2018-09-17T18:17:54.841Z,5.13
2018-09-17T18:20:25.280Z,5.20
2018-09-17T18:22:55.590Z,4.70
2018-09-17T18:25:26.725Z,5.33
2018-09-17T18:27:56.443Z,5.33
2018-09-17T18:30:26.134Z,5.33
2018-09-17T18:32:57.089Z,5.60
2018-09-17T18:35:27.745Z,5.83
2018-09-17T18:38:02.776Z,5.80
2018-09-17T18:40:33.397Z,5.07
2018-09-17T18:43:04.708Z,5.07
2018-09-17T18:45:34.285Z,5.57
2018-09-17T18:48:08.370Z,6.13
2018-09-17T18:50:37.941Z,5.67
2018-09-17T18:53:07.765Z,5.20
2018-09-17T18:55:37.293Z,5.60
2018-09-17T18:58:08.118Z,5.60
2018-09-17T19:00:38.380Z,5.40
2018-09-17T19:03:15.131Z,5.73
2018-09-17T19:05:44.973Z,5.90
2018-09-17T19:08:15.908Z,5.70
2018-09-17T19:10:45.963Z,5.53
2018-09-17T19:13:16.146Z,5.97
2018-09-17T19:15:52.139Z,5.70
2018-09-17T19:18:21.979Z,6.23
2018-09-17T19:20:53.208Z,6.07
2018-09-17T19:23:28.653Z,5.40
2018-09-17T19:25:58.389Z,6.00
2018-09-17T19:28:33.926Z,5.73
2018-09-17T19:31:03.866Z,6.13
2018-09-17T19:33:33.720Z,6.17
2018-09-17T19:36:06.796Z,6.30
2018-09-17T19:39:43.423Z,6.30
2018-09-17T19:42:14.579Z,5.77
2018-09-17T19:44:49.901Z,5.83
2018-09-17T19:47:24.775Z,5.80
2018-09-17T19:49:55.342Z,6.60
2018-09-17T19:52:25.589Z,5.60
2018-09-17T19:54:55.303Z,8.33
2018-09-17T19:57:30.207Z,7.13
2018-09-17T20:00:00.380Z,6.70
2018-09-17T20:02:30.381Z,6.30
2018-09-17T20:05:05.554Z,7.10
2018-09-17T20:07:35.095Z,6.57
2018-09-17T20:10:04.923Z,6.57
2018-09-17T20:12:34.413Z,5.93
2018-09-17T20:15:03.843Z,6.93
2018-09-17T20:17:33.565Z,6.43
2018-09-17T20:20:03.929Z,6.90
2018-09-17T20:22:33.695Z,6.37
2018-09-17T20:25:03.682Z,7.13
2018-09-17T20:27:33.241Z,6.97
2018-09-17T20:30:03.565Z,6.57
2018-09-17T20:32:34.915Z,7.30
2018-09-17T20:35:04.998Z,8.00
2018-09-17T20:37:35.276Z,7.43
2018-09-17T20:40:04.975Z,7.27
2018-09-17T20:42:35.870Z,6.53
2018-09-17T20:45:05.531Z,6.07
2018-09-17T20:47:36.073Z,6.40
2018-09-17T20:50:06.009Z,6.77
2018-09-17T20:52:36.860Z,6.77
2018-09-17T20:55:06.440Z,6.97
2018-09-17T20:57:36.695Z,7.00
2018-09-17T21:00:06.436Z,7.40
2018-09-17T21:02:37.129Z,6.70
2018-09-17T21:05:06.962Z,6.77
2018-09-17T21:07:37.011Z,6.67
2018-09-17T21:10:06.782Z,6.43
2018-09-17T21:12:37.818Z,6.13
2018-09-17T21:15:07.459Z,6.07
2018-09-17T21:17:37.379Z,6.67
2018-09-17T21:20:07.435Z,7.50
2018-09-17T21:22:37.147Z,6.90
2018-09-17T21:25:06.965Z,6.80
2018-09-17T21:27:36.605Z,7.13
2018-09-17T21:30:06.855Z,6.77
2018-09-17T21:32:36.303Z,6.93
2018-09-17T21:35:06.200Z,5.27
2018-09-17T21:37:35.944Z,6.73
2018-09-17T21:40:05.728Z,6.97
2018-09-17T21:42:35.265Z,7.47
2018-09-17T21:45:06.229Z,7.30
2018-09-17T21:47:35.943Z,6.87
2018-09-17T21:50:06.345Z,6.70
2018-09-17T21:52:37.187Z,7.67
2018-09-17T21:55:06.755Z,7.30
2018-09-17T21:57:36.933Z,6.60
2018-09-17T22:00:07.312Z,7.10
2018-09-17T22:02:37.224Z,7.47
2018-09-17T22:05:07.162Z,6.60
2018-09-17T22:07:37.392Z,6.63
2018-09-17T22:10:07.168Z,6.80
2018-09-17T22:12:36.916Z,6.87
2018-09-17T22:15:06.572Z,6.97
2018-09-17T22:17:36.225Z,7.00
2018-09-17T22:20:05.944Z,8.37
2018-09-17T22:22:36.518Z,8.07
2018-09-17T22:25:06.052Z,6.77
2018-09-17T22:27:35.427Z,6.03
2018-09-17T22:30:05.237Z,6.20
2018-09-17T22:32:34.772Z,7.40
2018-09-17T22:35:05.002Z,7.40
2018-09-17T22:37:34.515Z,6.93
2018-09-17T22:40:04.277Z,6.87
2018-09-17T22:42:34.449Z,7.70
2018-09-17T22:45:03.945Z,7.53
2018-09-17T22:47:33.705Z,7.33
2018-09-17T22:50:04.624Z,8.30
2018-09-17T22:52:34.129Z,8.27
2018-09-17T22:55:04.337Z,7.77
2018-09-17T22:57:33.844Z,7.83
2018-09-17T23:00:03.425Z,8.00
2018-09-17T23:02:33.051Z,7.80
2018-09-17T23:05:02.619Z,8.30
2018-09-17T23:07:32.007Z,8.50
2018-09-17T23:10:01.586Z,8.23
2018-09-17T23:12:31.455Z,8.43
2018-09-17T23:15:01.949Z,7.03
2018-09-17T23:17:31.637Z,7.00
2018-09-17T23:20:01.259Z,6.57
2018-09-17T23:22:30.834Z,6.87
2018-09-17T23:25:00.418Z,7.20
2018-09-17T23:27:30.160Z,7.27
2018-09-17T23:29:59.945Z,8.07
2018-09-17T23:32:29.512Z,6.83
2018-09-17T23:34:58.994Z,6.93
2018-09-17T23:37:28.548Z,7.07
2018-09-17T23:39:58.230Z,7.33
2018-09-17T23:42:28.502Z,7.73
2018-09-17T23:44:59.739Z,8.10
2018-09-17T23:47:29.336Z,8.17
2018-09-17T23:49:59.414Z,9.07
2018-09-17T23:52:29.138Z,8.33
2018-09-17T23:54:58.604Z,7.47
2018-09-17T23:57:33.378Z,7.77
